KBCB/BCB METAR and TAF weather

Enter ICAO airport designator
Station Type Date Time Source
KBCB METAR 2020/09/19 05:15 UTC NOAA

KBCB 190515Z AUTO 00000KT 7SM BKN055 12/12 A3024 RMK AO2 T01220122


Station Type Date Time Source
KBCB Decoded METAR 2020/09/19 05:15 UTC NOAA

Virginia Tech Airport, VA, United States (KBCB) 37-13N 080-25W
Sep 19, 2020 - 01:15 AM EDT / 2020.09.19 0515 UTC
Wind: Calm:0
Visibility: 7 mile(s):0
Sky conditions: mostly cloudy
Temperature: 54.0 F (12.2 C)
Dew Point: 54.0 F (12.2 C)
Relative Humidity: 100%
Pressure (altimeter): 30.24 in. Hg (1024 hPa)
ob: KBCB 190515Z AUTO 00000KT 7SM BKN055 12/12 A3024 RMK AO2 T01220122
cycle: 5

Station Type Date Time Source
KBCB TAF 2020/09/18 18:42 UTC NOAA

TAF KBCB 181740Z 1818/1918 35008G16KT P6SM BKN035
FM190400 02007KT P6SM BKN012
TEMPO 1909/1912 BKN007
FM191400 08008KT P6SM SCT035 BKN250

Example: see airport list